Time;durP1;ratioP1;P1;durP2;ratioP2;P2;SDS_P1;SDS_P2;PMS_P1;PMS_P2;Temp;Humidity;BMP_temperature;BMP_pressure;BME280_temperature;BME280_humidity;BME280_pressure;Samples;Min_cycle;Max_cycle;Signal;HPM_P1;HPM_P2
2023/01/23 00:01:09;;;;;;;1999.90;999.90;;;1.40;99.90;;;;;;5049991;28;20543;-65
2023/01/23 00:03:35;;;;;;;1999.90;999.90;;;1.30;99.90;;;;;;5049159;28;20474;-65
2023/01/23 00:06:04;;;;;;;1999.90;999.90;;;1.30;99.90;;;;;;5049685;28;21033;-64
2023/01/23 00:08:32;;;;;;;1999.90;999.90;;;1.30;99.90;;;;;;5049815;28;20448;-65
2023/01/23 00:10:58;;;;;;;1999.90;999.90;;;1.20;99.90;;;;;;5049831;28;20452;-64
2023/01/23 00:13:25;;;;;;;1999.90;999.90;;;1.20;99.90;;;;;;5049590;28;20440;-64
2023/01/23 00:15:54;;;;;;;1999.90;999.90;;;1.10;99.90;;;;;;5048931;28;20824;-64
2023/01/23 00:18:20;;;;;;;1999.90;999.90;;;1.10;99.90;;;;;;5049791;28;20470;-67
2023/01/23 00:20:47;;;;;;;1999.90;999.90;;;1.10;99.90;;;;;;5049640;28;20459;-64
2023/01/23 00:23:14;;;;;;;1999.90;999.90;;;1.10;99.90;;;;;;5049346;28;20648;-65
2023/01/23 00:25:41;;;;;;;1999.90;999.90;;;1.10;99.90;;;;;;5049177;28;20480;-65
2023/01/23 00:28:07;;;;;;;1999.90;999.90;;;1.10;99.90;;;;;;5049857;28;20961;-65
2023/01/23 00:30:34;;;;;;;1999.90;999.90;;;1.10;99.90;;;;;;5049338;28;20452;-64
2023/01/23 00:33:02;;;;;;;1999.90;999.90;;;1.10;99.90;;;;;;5049083;28;20456;-65
2023/01/23 00:35:30;;;;;;;1999.90;999.90;;;1.20;99.90;;;;;;5049311;28;20464;-64
2023/01/23 00:37:57;;;;;;;1999.90;999.90;;;1.20;99.90;;;;;;5049362;28;20455;-65
2023/01/23 00:40:24;;;;;;;1999.90;999.90;;;1.20;99.90;;;;;;5049502;28;20929;-64
2023/01/23 00:42:50;;;;;;;1999.90;999.90;;;1.20;99.90;;;;;;5048945;28;20855;-65
2023/01/23 00:45:17;;;;;;;1999.90;999.90;;;1.20;99.90;;;;;;5048603;28;20846;-65
2023/01/23 00:47:44;;;;;;;1999.90;999.90;;;1.20;99.90;;;;;;5048690;28;20456;-65
2023/01/23 00:50:13;;;;;;;1999.90;999.90;;;1.20;99.90;;;;;;5048670;28;20452;-66
2023/01/23 00:52:40;;;;;;;1999.90;999.90;;;1.20;99.90;;;;;;5048456;28;20448;-66
2023/01/23 00:55:08;;;;;;;1999.90;999.90;;;1.20;99.90;;;;;;5048727;28;20471;-65
2023/01/23 00:57:35;;;;;;;1999.90;999.90;;;1.20;99.90;;;;;;5049273;28;20448;-65
2023/01/23 01:00:02;;;;;;;1999.90;999.90;;;1.20;99.90;;;;;;5049290;28;20456;-66
2023/01/23 01:02:29;;;;;;;1999.90;999.90;;;1.10;99.90;;;;;;5048308;28;20957;-66
2023/01/23 01:04:56;;;;;;;1999.90;999.90;;;1.20;99.90;;;;;;5048476;28;20491;-66
2023/01/23 01:07:24;;;;;;;1999.90;999.90;;;1.20;99.90;;;;;;5048658;28;20456;-66
2023/01/23 01:09:51;;;;;;;1999.90;999.90;;;1.20;99.90;;;;;;5048913;28;20448;-65
2023/01/23 01:12:18;;;;;;;1999.90;999.90;;;1.20;99.90;;;;;;5048918;28;20444;-66
2023/01/23 01:14:45;;;;;;;1999.90;999.90;;;1.20;99.90;;;;;;5048288;28;20464;-65
2023/01/23 01:17:12;;;;;;;1999.90;999.90;;;1.20;99.90;;;;;;5048553;28;20448;-65
2023/01/23 01:19:38;;;;;;;1999.90;999.90;;;1.20;99.90;;;;;;5047414;28;21049;-65
2023/01/23 01:22:05;;;;;;;1999.90;999.90;;;1.30;99.90;;;;;;5047926;28;20811;-65
2023/01/23 01:24:33;;;;;;;1999.90;999.90;;;1.30;99.90;;;;;;5047085;28;20467;-64
2023/01/23 01:27:00;;;;;;;1999.90;999.90;;;1.40;99.90;;;;;;5048324;28;20452;-65
2023/01/23 01:29:27;;;;;;;1999.90;999.90;;;1.50;99.90;;;;;;5047953;28;20801;-64
2023/01/23 01:31:54;;;;;;;1999.90;999.90;;;1.60;99.90;;;;;;5047628;28;20444;-65
2023/01/23 01:34:20;;;;;;;1999.90;999.90;;;1.60;99.90;;;;;;5047696;28;20997;-65
2023/01/23 01:36:47;;;;;;;1999.90;999.90;;;1.60;99.90;;;;;;5048100;28;20447;-66
2023/01/23 01:39:14;;;;;;;1999.90;999.90;;;1.60;99.90;;;;;;5048595;28;20452;-65
2023/01/23 01:41:42;;;;;;;1999.90;999.90;;;1.60;99.90;;;;;;5047932;28;20480;-65
2023/01/23 01:44:14;;;;;;;1999.90;999.90;;;1.60;99.90;;;;;;5047599;28;20503;-66
2023/01/23 01:46:41;;;;;;;1999.90;999.90;;;1.60;99.90;;;;;;5047633;28;20527;-65
2023/01/23 01:49:11;;;;;;;1999.90;999.90;;;1.60;99.90;;;;;;5047603;28;20590;-65
2023/01/23 01:51:42;;;;;;;1999.90;999.90;;;1.60;99.90;;;;;;5047632;28;20444;-64
2023/01/23 01:54:17;;;;;;;1999.90;999.90;;;1.50;99.90;;;;;;5047477;28;20847;-65
2023/01/23 01:56:49;;;;;;;1999.90;999.90;;;1.40;99.90;;;;;;5046785;28;20455;-64
2023/01/23 01:59:17;;;;;;;1999.90;999.90;;;1.40;99.90;;;;;;5050310;28;20448;-65
2023/01/23 02:01:47;;;;;;;1999.90;999.90;;;1.40;99.90;;;;;;5050948;28;20953;-65
2023/01/23 02:04:15;;;;;;;1999.90;999.90;;;1.30;99.90;;;;;;5051543;28;20473;-66
2023/01/23 02:06:42;;;;;;;1999.90;999.90;;;1.30;99.90;;;;;;5051249;28;20479;-65
2023/01/23 02:09:14;;;;;;;1999.90;999.90;;;1.30;99.90;;;;;;5050406;28;20953;-65
2023/01/23 02:11:42;;;;;;;1999.90;999.90;;;1.30;99.90;;;;;;5051834;28;20949;-65
2023/01/23 02:14:10;;;;;;;1999.90;999.90;;;1.40;99.90;;;;;;5051664;28;20494;-65
2023/01/23 02:16:42;;;;;;;1999.90;999.90;;;1.40;99.90;;;;;;5052140;28;20448;-65
2023/01/23 02:19:19;;;;;;;1999.90;999.90;;;1.30;99.90;;;;;;5051653;28;20570;-66
2023/01/23 02:21:49;;;;;;;1999.90;999.90;;;1.40;99.90;;;;;;5052044;28;20846;-65
2023/01/23 02:24:24;;;;;;;1999.90;999.90;;;1.40;99.90;;;;;;5051069;28;20977;-65
2023/01/23 02:26:52;;;;;;;1999.90;999.90;;;1.40;99.90;;;;;;5052019;28;20487;-65
2023/01/23 02:29:19;;;;;;;1999.90;999.90;;;1.30;99.90;;;;;;5052389;28;20473;-66
2023/01/23 02:31:48;;;;;;;1999.90;999.90;;;1.30;99.90;;;;;;5051651;28;20535;-63
2023/01/23 02:34:15;;;;;;;1999.90;999.90;;;1.30;99.90;;;;;;5051137;28;20480;-64
2023/01/23 02:36:47;;;;;;;1999.90;999.90;;;1.40;99.90;;;;;;5051639;28;20444;-65
2023/01/23 02:39:15;;;;;;;1999.90;999.90;;;1.40;99.90;;;;;;5052186;28;20452;-66
2023/01/23 02:41:44;;;;;;;1999.90;999.90;;;1.40;99.90;;;;;;5051473;28;20444;-65
2023/01/23 02:44:17;;;;;;;1999.90;999.90;;;1.40;99.90;;;;;;5051599;28;20463;-66
2023/01/23 02:46:43;;;;;;;1999.90;999.90;;;1.40;99.90;;;;;;5051384;28;20483;-66
2023/01/23 02:49:10;;;;;;;1999.90;999.90;;;1.30;99.90;;;;;;5051861;28;20448;-66
2023/01/23 02:51:37;;;;;;;1999.90;999.90;;;1.40;99.90;;;;;;5051877;28;20440;-66
2023/01/23 02:54:05;;;;;;;1999.90;999.90;;;1.40;99.90;;;;;;5051401;28;20476;-65
2023/01/23 02:56:32;;;;;;;1999.90;999.90;;;1.30;99.90;;;;;;5051457;28;20447;-66
2023/01/23 03:01:45;;;;;;;1999.90;999.90;;;1.30;99.90;;;;;;5051020;28;21081;-66
2023/01/23 03:04:12;;;;;;;1999.90;999.90;;;1.30;99.90;;;;;;5050964;28;20467;-66
2023/01/23 03:06:38;;;;;;;1999.90;999.90;;;1.30;99.90;;;;;;5050853;28;20499;-68
2023/01/23 03:09:08;;;;;;;1999.90;999.90;;;1.30;99.90;;;;;;5050807;28;20444;-66
2023/01/23 03:11:36;;;;;;;1999.90;999.90;;;1.40;99.90;;;;;;5050150;28;20456;-66
2023/01/23 03:14:03;;;;;;;1999.90;999.90;;;1.40;99.90;;;;;;5050584;28;20461;-66
2023/01/23 03:16:29;;;;;;;1999.90;999.90;;;1.50;99.90;;;;;;5050730;28;20946;-66
2023/01/23 03:19:00;;;;;;;1999.90;999.90;;;1.50;99.90;;;;;;5051041;28;20443;-66
2023/01/23 03:21:28;;;;;;;1999.90;999.90;;;1.40;99.90;;;;;;5051000;28;20497;-66
2023/01/23 03:23:54;;;;;;;1999.90;999.90;;;1.30;99.90;;;;;;5050515;28;20475;-66
2023/01/23 03:26:21;;;;;;;1999.90;999.90;;;1.30;99.90;;;;;;5050451;28;20483;-66
2023/01/23 03:31:32;;;;;;;1999.90;999.90;;;1.40;99.90;;;;;;5051164;28;20428;-66
2023/01/23 03:34:00;;;;;;;1999.90;999.90;;;1.40;99.90;;;;;;5050813;28;20480;-66
2023/01/23 03:36:27;;;;;;;1999.90;999.90;;;1.30;99.90;;;;;;5051715;28;20444;-66
2023/01/23 03:41:40;;;;;;;1999.90;999.90;;;1.30;99.90;;;;;;5051283;28;20526;-66
2023/01/23 03:44:08;;;;;;;1999.90;999.90;;;1.30;99.90;;;;;;5050043;28;20467;-66
2023/01/23 03:46:34;;;;;;;1999.90;999.90;;;1.30;99.90;;;;;;5050984;28;20506;-66
2023/01/23 03:49:03;;;;;;;1999.90;999.90;;;1.30;99.90;;;;;;5051048;28;20455;-66
2023/01/23 03:51:29;;;;;;;1999.90;999.90;;;1.30;99.90;;;;;;5050535;28;20975;-66
2023/01/23 03:53:56;;;;;;;1999.90;999.90;;;1.40;99.90;;;;;;5049829;28;20464;-65
2023/01/23 03:56:23;;;;;;;1999.90;999.90;;;1.40;99.90;;;;;;5050515;28;20448;-66
2023/01/23 03:58:50;;;;;;;1999.90;999.90;;;1.40;99.90;;;;;;5050445;28;20479;-66
2023/01/23 04:01:16;;;;;;;1999.90;999.90;;;1.40;99.90;;;;;;5050264;28;20447;-64
2023/01/23 04:03:43;;;;;;;1999.90;999.90;;;1.40;99.90;;;;;;5050092;28;20463;-65
2023/01/23 04:06:11;;;;;;;1999.90;999.90;;;1.40;99.90;;;;;;5049856;28;20495;-65
2023/01/23 04:08:38;;;;;;;1999.90;999.90;;;1.40;99.90;;;;;;5050111;28;20448;-64
2023/01/23 04:11:06;;;;;;;1999.90;999.90;;;1.50;99.90;;;;;;5050030;28;20810;-64
2023/01/23 04:13:33;;;;;;;1999.90;999.90;;;1.40;99.90;;;;;;5049519;28;20476;-63
2023/01/23 04:16:01;;;;;;;1999.90;999.90;;;1.40;99.90;;;;;;5050452;28;20447;-65
2023/01/23 04:18:28;;;;;;;1999.90;999.90;;;1.30;99.90;;;;;;5050299;28;20969;-65
2023/01/23 04:20:55;;;;;;;1999.90;999.90;;;1.40;99.90;;;;;;5049841;28;20518;-65
2023/01/23 04:23:23;;;;;;;1999.90;999.90;;;1.40;99.90;;;;;;5049938;28;20451;-64
2023/01/23 04:25:50;;;;;;;1999.90;999.90;;;1.40;99.90;;;;;;5050608;28;20479;-65
2023/01/23 04:28:18;;;;;;;1999.90;999.90;;;1.50;99.90;;;;;;5050647;28;20831;-64
2023/01/23 04:30:45;;;;;;;1999.90;999.90;;;1.40;99.90;;;;;;5050568;28;20456;-66
2023/01/23 04:33:12;;;;;;;1999.90;999.90;;;1.40;99.90;;;;;;5049375;28;20443;-66
2023/01/23 04:35:39;;;;;;;1999.90;999.90;;;1.50;99.90;;;;;;5048366;28;20455;-65
2023/01/23 04:38:06;;;;;;;1999.90;999.90;;;1.50;99.90;;;;;;5049731;28;20449;-65
2023/01/23 04:40:34;;;;;;;1999.90;999.90;;;1.60;99.90;;;;;;5049533;28;20448;-64
2023/01/23 04:43:01;;;;;;;1999.90;999.90;;;1.50;99.90;;;;;;5049236;28;20467;-64
2023/01/23 04:45:27;;;;;;;1999.90;999.90;;;1.50;99.90;;;;;;5049206;28;20503;-65
2023/01/23 04:47:54;;;;;;;1999.90;999.90;;;1.50;99.90;;;;;;5049103;28;20487;-65
2023/01/23 04:50:21;;;;;;;1999.90;999.90;;;1.50;99.90;;;;;;5048960;28;20452;-64
2023/01/23 04:52:48;;;;;;;1999.90;999.90;;;1.50;99.90;;;;;;5048813;28;20856;-65
2023/01/23 04:55:14;;;;;;;1999.90;999.90;;;1.50;99.90;;;;;;5048667;28;20468;-64
2023/01/23 04:57:42;;;;;;;1999.90;999.90;;;1.50;99.90;;;;;;5048677;28;20444;-65
2023/01/23 05:00:10;;;;;;;1999.90;999.90;;;1.50;99.90;;;;;;5048233;28;20898;-65
2023/01/23 05:02:37;;;;;;;1999.90;999.90;;;1.50;99.90;;;;;;5048943;28;21093;-65
2023/01/23 05:05:05;;;;;;;1999.90;999.90;;;1.50;99.90;;;;;;5048464;28;20478;-65
2023/01/23 05:07:32;;;;;;;1999.90;999.90;;;1.50;99.90;;;;;;5048967;28;20484;-65
2023/01/23 05:09:58;;;;;;;1999.90;999.90;;;1.50;99.90;;;;;;5048805;28;20491;-65
2023/01/23 05:12:25;;;;;;;1999.90;999.90;;;1.40;99.90;;;;;;5047355;28;20819;-66
2023/01/23 05:14:53;;;;;;;1999.90;999.90;;;1.40;99.90;;;;;;5048835;28;20598;-65
2023/01/23 05:17:20;;;;;;;1999.90;999.90;;;1.40;99.90;;;;;;5047905;28;20441;-65
2023/01/23 05:19:47;;;;;;;1999.90;999.90;;;1.40;99.90;;;;;;5049394;28;20447;-65
2023/01/23 05:22:14;;;;;;;1999.90;999.90;;;1.50;99.90;;;;;;5048806;28;20454;-64
2023/01/23 05:24:41;;;;;;;1999.90;999.90;;;1.50;99.90;;;;;;5048642;28;20486;-65
2023/01/23 05:27:07;;;;;;;1999.90;999.90;;;1.50;99.90;;;;;;5048443;28;20502;-65
2023/01/23 05:29:34;;;;;;;1999.90;999.90;;;1.50;99.90;;;;;;5048743;28;20455;-65
2023/01/23 05:32:02;;;;;;;1999.90;999.90;;;1.60;99.90;;;;;;5047798;28;20832;-64
2023/01/23 05:34:29;;;;;;;1999.90;999.90;;;1.60;99.90;;;;;;5050834;28;20951;-65
2023/01/23 05:36:56;;;;;;;1999.90;999.90;;;1.60;99.90;;;;;;5052931;28;20937;-66
2023/01/23 05:39:23;;;;;;;1999.90;999.90;;;1.70;99.90;;;;;;5053063;28;20447;-65
2023/01/23 05:41:50;;;;;;;1999.90;999.90;;;1.70;99.90;;;;;;5052883;28;20452;-65
2023/01/23 05:44:16;;;;;;;1999.90;999.90;;;1.70;99.90;;;;;;5051510;28;20502;-66
2023/01/23 05:46:43;;;;;;;1999.90;999.90;;;1.60;99.90;;;;;;5052712;28;20488;-65
2023/01/23 05:49:11;;;;;;;1999.90;999.90;;;1.60;99.90;;;;;;5052701;28;20459;-66
2023/01/23 05:51:38;;;;;;;1999.90;999.90;;;1.60;99.90;;;;;;5052828;28;20444;-66
2023/01/23 05:54:05;;;;;;;1999.90;999.90;;;1.60;99.90;;;;;;5051835;28;20482;-66
2023/01/23 05:56:31;;;;;;;1999.90;999.90;;;1.60;99.90;;;;;;5052504;28;20444;-70
2023/01/23 05:58:58;;;;;;;1999.90;999.90;;;1.60;99.90;;;;;;5052402;28;20447;-71
2023/01/23 06:01:25;;;;;;;1999.90;999.90;;;1.50;99.90;;;;;;5052576;28;20523;-70
2023/01/23 06:03:52;;;;;;;1999.90;999.90;;;1.40;99.90;;;;;;5052010;28;20476;-71
2023/01/23 06:06:20;;;;;;;1999.90;999.90;;;1.40;99.90;;;;;;5052215;28;20511;-69
2023/01/23 06:08:47;;;;;;;1999.90;999.90;;;1.50;99.90;;;;;;5051903;28;20980;-70
2023/01/23 06:11:14;;;;;;;1999.90;999.90;;;1.50;99.90;;;;;;5051436;28;20450;-70
2023/01/23 06:13:40;;;;;;;1999.90;999.90;;;1.40;99.90;;;;;;5051762;28;20464;-70
2023/01/23 06:16:08;;;;;;;1999.90;999.90;;;1.40;99.90;;;;;;5052237;28;20805;-69
2023/01/23 06:18:35;;;;;;;1999.90;999.90;;;1.40;99.90;;;;;;5052480;28;20467;-69
2023/01/23 06:21:02;;;;;;;1999.90;999.90;;;1.40;99.90;;;;;;5051270;28;20926;-70
2023/01/23 06:23:30;;;;;;;1999.90;999.90;;;1.40;99.90;;;;;;5051949;28;20458;-69
2023/01/23 06:26:00;;;;;;;1999.90;999.90;;;1.40;99.90;;;;;;5052145;28;20466;-69
2023/01/23 06:28:27;;;;;;;1999.90;999.90;;;1.40;99.90;;;;;;5052401;28;20483;-67
2023/01/23 06:30:54;;;;;;;1999.90;999.90;;;1.40;99.90;;;;;;5052385;28;20455;-67
2023/01/23 06:33:21;;;;;;;1999.90;999.90;;;1.40;99.90;;;;;;5051420;28;20455;-67
2023/01/23 06:35:47;;;;;;;1999.90;999.90;;;1.40;99.90;;;;;;5052044;28;20452;-67
2023/01/23 06:38:14;;;;;;;1999.90;999.90;;;1.40;99.90;;;;;;5050743;28;20447;-67
2023/01/23 06:40:43;;;;;;;1999.90;999.90;;;1.40;99.90;;;;;;5045886;28;20451;-69
2023/01/23 06:43:10;;;;;;;1999.90;999.90;;;1.40;99.90;;;;;;5052063;28;20454;-68
2023/01/23 06:45:37;;;;;;;1999.90;999.90;;;1.40;99.90;;;;;;5047417;28;20452;-68
2023/01/23 06:48:04;;;;;;;1999.90;999.90;;;1.40;99.90;;;;;;5051393;28;20494;-68
2023/01/23 06:50:31;;;;;;;1999.90;999.90;;;1.40;99.90;;;;;;5050805;28;20448;-67
2023/01/23 06:52:57;;;;;;;1999.90;999.90;;;1.50;99.90;;;;;;5051221;28;20448;-67
2023/01/23 06:55:24;;;;;;;1999.90;999.90;;;1.50;99.90;;;;;;5050857;28;21189;-66
2023/01/23 06:57:52;;;;;;;1999.90;999.90;;;1.40;99.90;;;;;;5051772;28;20455;-66
2023/01/23 07:00:20;;;;;;;1999.90;999.90;;;1.50;99.90;;;;;;5051001;28;20452;-67
2023/01/23 07:02:47;;;;;;;1999.90;999.90;;;1.40;99.90;;;;;;5051044;28;20444;-66
2023/01/23 07:05:13;;;;;;;1999.90;999.90;;;1.50;99.90;;;;;;5050909;28;20463;-66
2023/01/23 07:07:40;;;;;;;1999.90;999.90;;;1.40;99.90;;;;;;5051340;28;20482;-66
2023/01/23 07:10:09;;;;;;;1999.90;999.90;;;1.50;99.90;;;;;;5051291;28;20454;-66
2023/01/23 07:12:37;;;;;;;1999.90;999.90;;;1.50;99.90;;;;;;5051015;28;20812;-66
2023/01/23 07:15:06;;;;;;;1999.90;999.90;;;1.50;99.90;;;;;;5051379;28;20467;-66
2023/01/23 07:17:33;;;;;;;1999.90;999.90;;;1.50;99.90;;;;;;5049965;28;20467;-65
2023/01/23 07:19:59;;;;;;;1999.90;999.90;;;1.50;99.90;;;;;;5051246;28;20455;-66
2023/01/23 07:22:26;;;;;;;1999.90;999.90;;;1.50;99.90;;;;;;5050502;28;20448;-64
2023/01/23 07:24:53;;;;;;;1999.90;999.90;;;1.60;99.90;;;;;;5050703;28;21103;-66
2023/01/23 07:27:20;;;;;;;1999.90;999.90;;;1.50;99.90;;;;;;5050823;28;20678;-65
2023/01/23 07:29:47;;;;;;;1999.90;999.90;;;1.50;99.90;;;;;;5050796;28;20945;-65
2023/01/23 07:32:15;;;;;;;1999.90;999.90;;;1.60;99.90;;;;;;5050439;28;20451;-66
2023/01/23 07:34:41;;;;;;;1999.90;999.90;;;1.60;99.90;;;;;;5050166;28;20838;-65
2023/01/23 07:37:08;;;;;;;1999.90;999.90;;;1.60;99.90;;;;;;5050730;28;20444;-65
2023/01/23 07:39:35;;;;;;;1999.90;999.90;;;1.60;99.90;;;;;;5050767;28;20452;-65
2023/01/23 07:42:02;;;;;;;1999.90;999.90;;;1.60;99.90;;;;;;5050612;28;20479;-65
2023/01/23 07:44:29;;;;;;;1999.90;999.90;;;1.70;99.90;;;;;;5050009;28;20464;-66
2023/01/23 07:46:56;;;;;;;1999.90;999.90;;;1.60;99.90;;;;;;5050149;28;20480;-68
2023/01/23 07:49:24;;;;;;;1999.90;999.90;;;1.70;99.90;;;;;;5050226;28;20448;-65
2023/01/23 07:51:51;;;;;;;1999.90;999.90;;;1.70;99.90;;;;;;5050683;28;20448;-65
2023/01/23 07:54:18;;;;;;;1999.90;999.90;;;1.70;99.90;;;;;;5050657;28;20464;-66
2023/01/23 07:56:45;;;;;;;1999.90;999.90;;;1.70;99.90;;;;;;5049756;28;20518;-65
2023/01/23 07:59:12;;;;;;;1999.90;999.90;;;1.70;99.90;;;;;;5049913;28;20450;-68
2023/01/23 08:01:39;;;;;;;1999.90;999.90;;;1.70;99.90;;;;;;5050436;28;20800;-66
2023/01/23 08:04:06;;;;;;;1999.90;999.90;;;1.70;99.90;;;;;;5050037;28;20468;-65
2023/01/23 08:06:35;;;;;;;1999.90;999.90;;;1.70;99.90;;;;;;5049755;28;20911;-66
2023/01/23 08:09:02;;;;;;;1999.90;999.90;;;1.70;99.90;;;;;;5050338;28;20471;-64
2023/01/23 08:11:29;;;;;;;1999.90;999.90;;;1.70;99.90;;;;;;5050019;28;20450;-67
2023/01/23 08:13:55;;;;;;;1999.90;999.90;;;1.80;99.90;;;;;;5049728;28;20471;-66
2023/01/23 08:16:22;;;;;;;1999.90;999.90;;;1.80;99.90;;;;;;5049970;28;20444;-65
2023/01/23 08:18:49;;;;;;;1999.90;999.90;;;1.80;99.90;;;;;;5050415;28;20466;-65
2023/01/23 08:21:16;;;;;;;1999.90;999.90;;;1.80;99.90;;;;;;5050203;28;20452;-65
2023/01/23 08:23:45;;;;;;;1999.90;999.90;;;1.80;99.90;;;;;;5036148;28;20468;-65
2023/01/23 08:26:13;;;;;;;1999.90;999.90;;;1.90;99.90;;;;;;5047835;28;20510;-65
2023/01/23 08:28:40;;;;;;;1999.90;999.90;;;1.80;99.90;;;;;;5046300;28;21005;-68
2023/01/23 08:31:09;;;;;;;1999.90;999.90;;;1.80;99.90;;;;;;5039240;28;20451;-66
2023/01/23 08:33:37;;;;;;;1999.90;999.90;;;1.80;99.90;;;;;;5038901;28;20855;-66
2023/01/23 08:36:05;;;;;;;1999.90;999.90;;;1.80;99.90;;;;;;5034079;28;20449;-65
2023/01/23 08:38:32;;;;;;;1999.90;999.90;;;1.80;99.90;;;;;;5043304;28;20451;-65
2023/01/23 08:41:02;;;;;;;1999.90;999.90;;;1.80;99.90;;;;;;5038683;28;20977;-65
2023/01/23 08:43:29;;;;;;;1999.90;999.90;;;1.80;99.90;;;;;;5040052;28;20456;-66
2023/01/23 08:45:57;;;;;;;1999.90;999.90;;;1.80;99.90;;;;;;5029661;28;20461;-66
2023/01/23 08:48:26;;;;;;;1999.90;999.90;;;1.90;99.90;;;;;;5029453;28;20488;-66
2023/01/23 08:51:00;;;;;;;1999.90;999.90;;;1.90;99.90;;;;;;5029263;28;20459;-66
2023/01/23 08:53:45;;;;;;;1999.90;999.90;;;1.90;99.90;;;;;;5029228;28;20833;-66
2023/01/23 08:56:15;;;;;;;1999.90;999.90;;;1.90;99.90;;;;;;5029471;28;20451;-65
2023/01/23 08:58:42;;;;;;;1999.90;999.90;;;1.90;99.90;;;;;;5029355;28;20464;-66
2023/01/23 09:01:14;;;;;;;1999.90;999.90;;;2.00;99.90;;;;;;5029421;28;20942;-65
2023/01/23 09:03:41;;;;;;;1999.90;999.90;;;2.00;99.90;;;;;;5029016;28;20492;-66
2023/01/23 09:06:09;;;;;;;1999.90;999.90;;;2.20;99.90;;;;;;5029242;28;20822;-65
2023/01/23 09:08:36;;;;;;;1999.90;999.90;;;2.30;99.90;;;;;;5028208;28;20479;-66
2023/01/23 09:11:04;;;;;;;1999.90;999.90;;;2.40;99.90;;;;;;5029239;28;20453;-65
2023/01/23 09:13:32;;;;;;;1999.90;999.90;;;2.50;99.90;;;;;;5028767;28;20469;-66
2023/01/23 09:15:59;;;;;;;1999.90;999.90;;;2.60;99.90;;;;;;5029095;28;20455;-66
2023/01/23 09:18:26;;;;;;;1999.90;999.90;;;2.70;99.90;;;;;;5029294;28;20445;-65
2023/01/23 09:20:55;;;;;;;1999.90;999.90;;;2.90;99.90;;;;;;5028889;28;20460;-65
2023/01/23 09:23:36;;;;;;;1999.90;999.90;;;2.90;99.90;;;;;;5028836;28;20456;-65
2023/01/23 09:26:03;;;;;;;1999.90;999.90;;;2.80;99.90;;;;;;5029070;28;20448;-65
2023/01/23 09:28:32;;;;;;;1999.90;999.90;;;2.90;99.90;;;;;;5029076;28;20481;-65
2023/01/23 09:31:03;;;;;;;1999.90;999.90;;;3.00;99.90;;;;;;5028909;28;21107;-66
2023/01/23 09:33:29;;;;;;;1999.90;999.90;;;2.80;99.90;;;;;;5028502;28;20469;-64
2023/01/23 09:35:56;;;;;;;1999.90;999.90;;;2.80;99.90;;;;;;5029213;28;20452;-64
2023/01/23 09:38:23;;;;;;;1999.90;999.90;;;2.90;99.90;;;;;;5028801;28;20484;-65
2023/01/23 09:40:53;;;;;;;1999.90;999.90;;;2.90;99.90;;;;;;5029059;28;20456;-65
2023/01/23 09:43:24;;;;;;;1999.90;999.90;;;2.80;99.90;;;;;;5028568;28;20452;-65
2023/01/23 09:46:00;;;;;;;1999.90;999.90;;;2.80;99.90;;;;;;5028904;28;20964;-65
2023/01/23 09:48:30;;;;;;;1999.90;999.90;;;2.80;99.90;;;;;;5028735;28;21029;-65
2023/01/23 09:51:03;;;;;;;1999.90;999.90;;;2.70;99.90;;;;;;5028897;28;20967;-65
2023/01/23 09:53:36;;;;;;;1999.90;999.90;;;2.80;99.90;;;;;;5028505;28;20503;-65
2023/01/23 09:56:07;;;;;;;1999.90;999.90;;;2.80;99.90;;;;;;5028742;28;20991;-65
2023/01/23 09:58:39;;;;;;;1999.90;999.90;;;2.80;99.90;;;;;;5028379;28;21317;-65
2023/01/23 10:01:11;;;;;;;1999.90;999.90;;;2.90;99.90;;;;;;5028911;28;20449;-65
2023/01/23 10:03:38;;;;;;;1999.90;999.90;;;2.90;99.90;;;;;;5028452;28;20469;-65
2023/01/23 10:06:18;;;;;;;1999.90;999.90;;;2.90;99.90;;;;;;5028836;28;20453;-65
2023/01/23 10:09:01;;;;;;;1999.90;999.90;;;3.00;99.90;;;;;;5028627;28;20571;-64
2023/01/23 10:11:37;;;;;;;1999.90;999.90;;;3.10;99.90;;;;;;5029062;28;20444;-66
2023/01/23 10:14:30;;;;;;;1999.90;999.90;;;3.30;99.90;;;;;;5028623;28;20476;-64
2023/01/23 10:17:06;;;;;;;1999.90;999.90;;;3.60;99.90;;;;;;5028955;28;20440;-65
2023/01/23 10:19:52;;;;;;;1999.90;999.90;;;3.80;99.90;;;;;;5030213;28;20431;-66
2023/01/23 10:22:33;;;;;;;1999.90;999.90;;;3.90;99.90;;;;;;5032709;28;20518;-64
2023/01/23 10:25:02;;;;;;;1999.90;999.90;;;3.80;99.90;;;;;;5032360;28;20863;-64
2023/01/23 10:27:37;;;;;;;1999.90;999.90;;;3.70;99.90;;;;;;5032297;28;20459;-64
2023/01/23 10:30:13;;;;;;;1999.90;999.90;;;3.60;99.90;;;;;;5032482;28;20456;-66
2023/01/23 10:32:48;;;;;;;1999.90;999.90;;;3.60;99.90;;;;;;5032203;28;20444;-66
2023/01/23 10:35:19;;;;;;;1999.90;999.90;;;3.60;99.90;;;;;;5031974;28;20507;-66
2023/01/23 10:37:50;;;;;;;1999.90;999.90;;;3.60;99.90;;;;;;5032157;28;20455;-66
2023/01/23 10:41:12;;;;;;;1999.90;999.90;;;3.60;99.90;;;;;;5031827;28;20474;-65
2023/01/23 10:43:13;;;;;;;1999.90;999.90;;;3.60;99.90;;;;;;5031575;28;20477;-65
2023/01/23 10:45:41;;;;;;;1999.90;999.90;;;3.40;99.90;;;;;;5032135;28;20861;-66
2023/01/23 10:48:43;;;;;;;1999.90;999.90;;;3.40;99.90;;;;;;5031618;28;20484;-65
2023/01/23 10:51:35;;;;;;;1999.90;999.90;;;3.20;99.90;;;;;;5031522;28;20451;-65
2023/01/23 10:54:14;;;;;;;1999.90;999.90;;;3.30;99.90;;;;;;5031171;28;20994;-65
2023/01/23 10:56:48;;;;;;;1999.90;999.90;;;3.40;99.90;;;;;;5031345;28;20975;-64
2023/01/23 10:59:21;;;;;;;1999.90;999.90;;;3.50;99.90;;;;;;5031670;28;20448;-64
2023/01/23 11:02:00;;;;;;;1999.90;999.90;;;3.40;99.90;;;;;;5031446;28;20448;-67
2023/01/23 11:04:30;;;;;;;1999.90;999.90;;;3.30;99.90;;;;;;5031116;28;20465;-64
2023/01/23 11:07:06;;;;;;;1999.90;999.90;;;3.20;99.90;;;;;;5031154;28;20445;-67
2023/01/23 11:09:33;;;;;;;1999.90;999.90;;;3.00;99.90;;;;;;5031147;28;21059;-65
2023/01/23 11:12:05;;;;;;;1999.90;999.90;;;2.80;99.90;;;;;;5031156;28;20453;-64
2023/01/23 11:14:32;;;;;;;1999.90;999.90;;;2.70;99.90;;;;;;5030952;28;20469;-65
2023/01/23 11:17:02;;;;;;;1999.90;999.90;;;2.80;99.90;;;;;;5031090;28;20817;-64
2023/01/23 11:19:33;;;;;;;1999.90;999.90;;;2.80;99.90;;;;;;5031001;28;20527;-66
2023/01/23 11:22:01;;;;;;;1999.90;999.90;;;2.90;99.90;;;;;;5030901;28;20456;-65
2023/01/23 11:24:32;;;;;;;1999.90;999.90;;;3.00;99.90;;;;;;5030863;28;20469;-65
2023/01/23 11:27:01;;;;;;;1999.90;999.90;;;3.00;99.90;;;;;;5030966;28;20465;-67
2023/01/23 11:29:30;;;;;;;1999.90;999.90;;;3.10;99.90;;;;;;5030854;28;20492;-68
2023/01/23 11:32:00;;;;;;;1999.90;999.90;;;3.20;99.90;;;;;;5029893;28;20452;-66
2023/01/23 11:34:34;;;;;;;1999.90;999.90;;;3.10;99.90;;;;;;5030469;28;20476;-66
2023/01/23 11:37:09;;;;;;;1999.90;999.90;;;3.00;99.90;;;;;;5031062;28;20498;-65
2023/01/23 11:39:47;;;;;;;1999.90;999.90;;;3.00;99.90;;;;;;5030778;28;20840;-66
2023/01/23 11:42:16;;;;;;;1999.90;999.90;;;3.00;99.90;;;;;;5030566;28;21216;-66
2023/01/23 11:44:43;;;;;;;1999.90;999.90;;;3.10;99.90;;;;;;5030110;28;20556;-66
2023/01/23 11:47:34;;;;;;;1999.90;999.90;;;2.90;99.90;;;;;;5030696;28;20981;-66
2023/01/23 11:50:35;;;;;;;1999.90;999.90;;;2.90;99.90;;;;;;5017683;28;21006;-65
2023/01/23 11:53:11;;;;;;;1999.90;999.90;;;2.80;99.90;;;;;;5018865;28;20453;-66
2023/01/23 11:56:15;;;;;;;1999.90;999.90;;;2.80;99.90;;;;;;5030642;28;20982;-66
2023/01/23 11:59:20;;;;;;;1999.90;999.90;;;2.90;99.90;;;;;;4969191;28;20450;-66
2023/01/23 12:02:06;;;;;;;1999.90;999.90;;;3.10;99.90;;;;;;5030554;28;20456;-65
2023/01/23 12:05:04;;;;;;;1999.90;999.90;;;3.20;99.90;;;;;;5029830;28;20469;-66
2023/01/23 12:07:41;;;;;;;1999.90;999.90;;;3.30;99.90;;;;;;5030368;28;20484;-67
2023/01/23 12:10:17;;;;;;;1999.90;999.90;;;3.30;99.90;;;;;;5030292;28;20480;-67
2023/01/23 12:12:58;;;;;;;1999.90;999.90;;;3.30;99.90;;;;;;5030322;28;20800;-67
2023/01/23 12:15:36;;;;;;;1999.90;999.90;;;3.20;99.90;;;;;;5030511;28;20473;-65
2023/01/23 12:18:15;;;;;;;1999.90;999.90;;;3.20;99.90;;;;;;5030327;28;20441;-66
2023/01/23 12:20:50;;;;;;;1999.90;999.90;;;3.00;99.90;;;;;;5030319;28;20621;-67
2023/01/23 12:23:44;;;;;;;1999.90;999.90;;;3.00;99.90;;;;;;5029988;28;20551;-66
2023/01/23 12:26:14;;;;;;;1999.90;999.90;;;3.00;99.90;;;;;;5030201;28;20444;-65
2023/01/23 12:29:00;;;;;;;1999.90;999.90;;;3.10;99.90;;;;;;5029980;28;20491;-66